createdAt,value
2023-04-22T00:00:36.052Z,54.8093
2023-04-22T00:01:37.723Z,54.9825
2023-04-22T00:02:39.433Z,55.0906
2023-04-22T00:03:41.243Z,54.7889
2023-04-22T00:04:43.180Z,54.5221
2023-04-22T00:05:44.349Z,54.4869
2023-04-22T00:06:45.906Z,54.3096
2023-04-22T00:07:47.590Z,54.5528
2023-04-22T00:08:49.218Z,54.1239
2023-04-22T00:09:50.940Z,54.4104
2023-04-22T00:10:52.488Z,54.1963
2023-04-22T00:11:54.195Z,54.4903
2023-04-22T00:12:55.817Z,54.3704
2023-04-22T00:13:57.562Z,54.8842
2023-04-22T00:14:59.149Z,54.9206
2023-04-22T00:16:00.816Z,54.3908
2023-04-22T00:17:02.416Z,54.5039
2023-04-22T00:18:04.157Z,54.1997
2023-04-22T00:19:05.753Z,54.2023
2023-04-22T00:20:07.439Z,53.9931
2023-04-22T00:21:08.980Z,54.0108
2023-04-22T00:22:10.667Z,54.1309
2023-04-22T00:23:12.279Z,54.3302
2023-04-22T00:24:14.629Z,54.0499
2023-04-22T00:25:15.639Z,54.2434
2023-04-22T00:26:17.298Z,54.5634
2023-04-22T00:27:18.981Z,54.5566
2023-04-22T00:28:20.559Z,54.5924
2023-04-22T00:29:22.306Z,54.4755
2023-04-22T00:30:23.923Z,54.0255
2023-04-22T00:31:25.535Z,53.7829
2023-04-22T00:32:27.210Z,53.7223
2023-04-22T00:33:28.758Z,53.7295
2023-04-22T00:34:30.502Z,53.6782
2023-04-22T00:35:32.101Z,53.6750
2023-04-22T00:36:33.761Z,53.8715
2023-04-22T00:37:35.434Z,53.9862
2023-04-22T00:38:37.044Z,53.9982
2023-04-22T00:39:39.142Z,53.9354
2023-04-22T00:40:40.380Z,54.3200
2023-04-22T00:41:41.930Z,54.1133
2023-04-22T00:42:43.667Z,53.6589
2023-04-22T00:43:45.249Z,53.7011
2023-04-22T00:44:46.982Z,53.4196
2023-04-22T00:45:48.592Z,53.7142
2023-04-22T00:46:50.257Z,53.7177
2023-04-22T00:47:51.938Z,54.0279
2023-04-22T00:48:53.525Z,53.8524
2023-04-22T00:49:55.247Z,53.8935
2023-04-22T00:50:56.888Z,54.2556
2023-04-22T00:51:58.440Z,54.1185
2023-04-22T00:53:00.117Z,54.0215
2023-04-22T00:54:01.741Z,53.9572
2023-04-22T00:55:04.125Z,53.9145
2023-04-22T00:56:05.074Z,53.6506
2023-04-22T00:57:06.754Z,53.3525
2023-04-22T00:58:08.392Z,53.3991
2023-04-22T00:59:10.048Z,53.5663
2023-04-22T01:00:11.655Z,53.6587
2023-04-22T01:01:14.189Z,53.5627
2023-04-22T01:02:15.003Z,54.0044
2023-04-22T01:03:16.719Z,53.8731
2023-04-22T01:04:18.335Z,53.9007
2023-04-22T01:05:19.960Z,54.0334
2023-04-22T01:06:21.535Z,53.7527
2023-04-22T01:07:23.250Z,53.7126
2023-04-22T01:08:24.860Z,53.5170
2023-04-22T01:09:26.481Z,53.3862
2023-04-22T01:10:28.094Z,53.2432
2023-04-22T01:11:30.606Z,53.2135
2023-04-22T01:12:31.427Z,53.2047
2023-04-22T01:13:33.118Z,53.3141
2023-04-22T01:14:34.669Z,53.4877
2023-04-22T01:15:36.407Z,53.5444
2023-04-22T01:16:38.055Z,53.5911
2023-04-22T01:17:39.772Z,53.9651
2023-04-22T01:18:41.295Z,53.9601
2023-04-22T01:19:43.644Z,54.2597
2023-04-22T01:20:44.535Z,53.6105
2023-04-22T01:21:46.240Z,53.4235
2023-04-22T01:22:47.839Z,53.2834
2023-04-22T01:23:49.618Z,53.2751
2023-04-22T01:24:51.225Z,53.2893
2023-04-22T01:25:52.820Z,53.3245
2023-04-22T01:26:54.429Z,53.3796
2023-04-22T01:27:56.197Z,53.5452
2023-04-22T01:28:57.800Z,53.5763
2023-04-22T01:29:59.509Z,53.9061
2023-04-22T01:31:01.113Z,54.0223
2023-04-22T01:32:02.755Z,53.7503
2023-04-22T01:33:04.443Z,53.6608
2023-04-22T01:34:06.021Z,53.6856
2023-04-22T01:35:08.076Z,53.3153
2023-04-22T01:36:10.967Z,53.2607
2023-04-22T01:37:10.933Z,53.3506
2023-04-22T01:38:12.618Z,53.3573
2023-04-22T01:39:14.250Z,53.5298
2023-04-22T01:40:15.979Z,53.4100
2023-04-22T01:41:17.574Z,53.5038
2023-04-22T01:42:19.207Z,53.6782
2023-04-22T01:43:20.808Z,53.5644
2023-04-22T01:44:22.507Z,53.7929
2023-04-22T01:45:24.578Z,53.5180
2023-04-22T01:46:26.228Z,53.5540
2023-04-22T01:47:27.480Z,53.2258
2023-04-22T01:48:29.106Z,52.9773
2023-04-22T01:49:30.713Z,52.9607
2023-04-22T01:50:32.433Z,53.0948
2023-04-22T01:51:34.111Z,53.0332
2023-04-22T01:52:35.662Z,53.1020
2023-04-22T01:53:37.338Z,53.2052
2023-04-22T01:54:38.957Z,53.0318
2023-04-22T01:55:40.664Z,53.5224
2023-04-22T01:56:42.305Z,53.0664
2023-04-22T01:57:44.011Z,53.0837
2023-04-22T01:58:45.549Z,53.0561
2023-04-22T01:59:47.281Z,53.1356
2023-04-22T02:00:48.888Z,52.8770
2023-04-22T02:01:50.620Z,53.1762
2023-04-22T02:02:52.238Z,53.2746
2023-04-22T02:03:53.843Z,52.9409
2023-04-22T02:04:55.453Z,53.0311
2023-04-22T02:05:57.611Z,53.1562
2023-04-22T02:06:59.003Z,52.7777
2023-04-22T02:08:00.389Z,52.7601
2023-04-22T02:09:01.959Z,52.5875
2023-04-22T02:10:03.643Z,52.6515
2023-04-22T02:11:05.269Z,52.5838
2023-04-22T02:12:06.980Z,52.3686
2023-04-22T02:13:08.601Z,52.5092
2023-04-22T02:14:10.219Z,52.6864
2023-04-22T02:15:11.855Z,52.7098
2023-04-22T02:16:13.625Z,52.7406
2023-04-22T02:17:15.193Z,52.7531
2023-04-22T02:18:16.878Z,52.8345
2023-04-22T02:19:18.457Z,52.6805
2023-04-22T02:20:20.198Z,52.7218
2023-04-22T02:21:21.730Z,52.7889
2023-04-22T02:22:23.571Z,52.3690
2023-04-22T02:23:25.214Z,52.4235
2023-04-22T02:24:26.766Z,52.4558
2023-04-22T02:25:28.461Z,52.3795
2023-04-22T02:26:30.054Z,52.4214
2023-04-22T02:27:31.785Z,52.3828
2023-04-22T02:28:33.519Z,52.3266
2023-04-22T02:29:35.061Z,52.3744
2023-04-22T02:30:36.648Z,52.9237
2023-04-22T02:31:38.417Z,52.7474
2023-04-22T02:32:40.070Z,52.9017
2023-04-22T02:33:41.692Z,52.5466
2023-04-22T02:34:43.540Z,52.8210
2023-04-22T02:35:44.949Z,52.9054
2023-04-22T02:36:46.571Z,52.9742
2023-04-22T02:37:48.219Z,52.7241
2023-04-22T02:38:50.045Z,52.4639
2023-04-22T02:39:51.546Z,52.5143
2023-04-22T02:40:53.149Z,52.4024
2023-04-22T02:41:54.816Z,52.2467
2023-04-22T02:42:56.449Z,52.3969
2023-04-22T02:43:58.166Z,52.5475
2023-04-22T02:45:00.112Z,52.8055
2023-04-22T02:46:01.453Z,52.7348
2023-04-22T02:47:04.156Z,52.6868
2023-04-22T02:48:04.834Z,52.7111
2023-04-22T02:49:06.363Z,52.5977
2023-04-22T02:50:08.083Z,52.6032
2023-04-22T02:51:09.631Z,52.7745
2023-04-22T02:52:11.335Z,52.6799
2023-04-22T02:53:15.609Z,52.5227
2023-04-22T02:54:16.601Z,52.5182
2023-04-22T02:55:16.312Z,52.3755
2023-04-22T02:56:17.959Z,52.3208
2023-04-22T02:57:19.543Z,52.1398
2023-04-22T02:58:21.237Z,52.4077
2023-04-22T02:59:22.900Z,52.3295
2023-04-22T03:00:24.641Z,52.4098
2023-04-22T03:01:26.336Z,52.4265
2023-04-22T03:02:28.701Z,52.5288
2023-04-22T03:03:29.583Z,52.5262
2023-04-22T03:04:31.172Z,52.2302
2023-04-22T03:05:32.789Z,52.3037
2023-04-22T03:06:34.475Z,52.4793
2023-04-22T03:07:37.126Z,52.5307
2023-04-22T03:08:37.757Z,52.0471
2023-04-22T03:09:39.756Z,52.0715
2023-04-22T03:10:41.082Z,51.9944
2023-04-22T03:11:43.543Z,52.2602
2023-04-22T03:12:44.360Z,52.0207
2023-04-22T03:13:46.500Z,52.0249
2023-04-22T03:14:47.645Z,51.9377
2023-04-22T03:15:49.307Z,52.1263
2023-04-22T03:16:51.016Z,52.3714
2023-04-22T03:17:52.659Z,52.2275
2023-04-22T03:18:54.548Z,52.3099
2023-04-22T03:19:55.857Z,52.0912
2023-04-22T03:20:57.573Z,52.0094
2023-04-22T03:21:59.230Z,51.8755
2023-04-22T03:23:00.882Z,52.3318
2023-04-22T03:24:02.462Z,52.0856
2023-04-22T03:25:04.118Z,51.8897
2023-04-22T03:26:05.752Z,51.9662
2023-04-22T03:27:07.487Z,51.9700
2023-04-22T03:28:09.110Z,51.9895
2023-04-22T03:29:10.743Z,51.7836
2023-04-22T03:30:12.422Z,51.6712
2023-04-22T03:31:14.027Z,51.8588
2023-04-22T03:32:15.809Z,51.9757
2023-04-22T03:33:18.106Z,51.7922
2023-04-22T03:34:18.930Z,51.9869
2023-04-22T03:35:20.645Z,51.9951
2023-04-22T03:36:22.236Z,51.9396
2023-04-22T03:37:23.970Z,51.6972
2023-04-22T03:38:25.613Z,51.5634
2023-04-22T03:39:27.234Z,51.4011
2023-04-22T03:40:28.828Z,51.7653
2023-04-22T03:41:30.537Z,52.1245
2023-04-22T03:42:32.214Z,51.4274
2023-04-22T03:43:33.842Z,51.8976
2023-04-22T03:44:35.438Z,51.6132
2023-04-22T03:45:37.189Z,51.5851
2023-04-22T03:46:38.698Z,51.4832
2023-04-22T03:47:40.455Z,51.5790
2023-04-22T03:48:42.054Z,51.5425
2023-04-22T03:49:43.763Z,51.9478
2023-04-22T03:50:45.346Z,51.7294
2023-04-22T03:51:47.035Z,51.7925
2023-04-22T03:52:48.642Z,51.7904
2023-04-22T03:53:50.337Z,51.6288
2023-04-22T03:54:53.588Z,51.1825
2023-04-22T03:55:53.640Z,51.0924
2023-04-22T03:56:55.200Z,50.8152
2023-04-22T03:57:56.887Z,50.0658
2023-04-22T03:58:58.581Z,49.6977
2023-04-22T04:00:00.559Z,49.6050
2023-04-22T04:01:01.825Z,49.6788
2023-04-22T04:02:03.585Z,49.1417
2023-04-22T04:03:05.304Z,48.8622
2023-04-22T04:04:06.961Z,48.7411
2023-04-22T04:05:08.660Z,48.3244
2023-04-22T04:06:10.052Z,48.0210
2023-04-22T04:07:11.775Z,47.9645
2023-04-22T04:08:13.390Z,47.5835
2023-04-22T04:09:15.007Z,47.2219
2023-04-22T04:10:17.088Z,47.1818
2023-04-22T04:11:18.366Z,46.9729
2023-04-22T04:12:19.920Z,46.8112
2023-04-22T04:13:21.601Z,46.6350
2023-04-22T04:14:23.372Z,46.6305
2023-04-22T04:15:25.105Z,46.5087
2023-04-22T04:16:27.823Z,46.5066
2023-04-22T04:17:28.377Z,46.3931
2023-04-22T04:18:29.975Z,46.1308
2023-04-22T04:19:31.681Z,46.0193
2023-04-22T04:20:34.261Z,45.7961
2023-04-22T04:21:34.992Z,45.6875
2023-04-22T04:22:36.569Z,45.5145
2023-04-22T04:23:38.214Z,45.4335
2023-04-22T04:24:40.042Z,45.4835
2023-04-22T04:25:41.724Z,45.3469
2023-04-22T04:26:43.284Z,45.1717
2023-04-22T04:27:44.876Z,45.1611
2023-04-22T04:28:46.528Z,45.2472
2023-04-22T04:29:48.146Z,45.3369
2023-04-22T04:30:49.899Z,45.3128
2023-04-22T04:31:51.483Z,45.2135
2023-04-22T04:32:53.055Z,45.1075
2023-04-22T04:33:54.788Z,44.9898
2023-04-22T04:34:56.334Z,44.9910
2023-04-22T04:35:58.115Z,44.9721
2023-04-22T04:36:59.757Z,44.9673
2023-04-22T04:38:01.422Z,45.0012
2023-04-22T04:39:02.922Z,44.9874
2023-04-22T04:40:04.776Z,45.0263
2023-04-22T04:41:06.239Z,45.0615
2023-04-22T04:42:07.958Z,45.0240
2023-04-22T04:43:09.636Z,44.9737
2023-04-22T04:44:12.267Z,45.1721
2023-04-22T04:45:12.790Z,45.1674
2023-04-22T04:46:14.617Z,45.2297
2023-04-22T04:47:16.166Z,44.9452
2023-04-22T04:48:17.931Z,45.0538
2023-04-22T04:49:19.468Z,44.9762
2023-04-22T04:50:21.164Z,44.8733
2023-04-22T04:51:22.725Z,45.0014
2023-04-22T04:52:24.477Z,44.9756
2023-04-22T04:53:26.044Z,45.0277
2023-04-22T04:54:27.745Z,45.2087
2023-04-22T04:55:29.313Z,45.2331
2023-04-22T04:56:30.995Z,45.2597
2023-04-22T04:57:32.692Z,45.3330
2023-04-22T04:58:35.333Z,45.3242
2023-04-22T04:59:35.928Z,45.4558
2023-04-22T05:00:37.676Z,45.5695
2023-04-22T05:01:39.358Z,45.6667
2023-04-22T05:02:41.124Z,45.7820
2023-04-22T05:03:42.902Z,45.8447
2023-04-22T05:04:45.256Z,45.7416
2023-04-22T05:05:45.838Z,45.6949
2023-04-22T05:06:48.307Z,45.7177
2023-04-22T05:07:49.235Z,45.7361
2023-04-22T05:08:50.772Z,45.8628
2023-04-22T05:09:52.539Z,45.9321
2023-04-22T05:10:54.056Z,46.0224
2023-04-22T05:11:55.714Z,46.1943
2023-04-22T05:12:58.317Z,46.3994
2023-04-22T05:13:59.110Z,46.4306
2023-04-22T05:15:00.687Z,46.5539
2023-04-22T05:16:02.387Z,46.6978
2023-04-22T05:17:04.288Z,46.7885
2023-04-22T05:18:05.737Z,46.9005
2023-04-22T05:19:07.262Z,47.0302
2023-04-22T05:20:09.017Z,46.9780
2023-04-22T05:21:11.512Z,47.0775
2023-04-22T05:22:12.275Z,47.2011
2023-04-22T05:23:13.837Z,47.2919
2023-04-22T05:24:15.622Z,47.6310
2023-04-22T05:25:17.208Z,47.8849
2023-04-22T05:26:18.815Z,47.9793
2023-04-22T05:27:20.446Z,47.9950
2023-04-22T05:28:22.078Z,48.0453
2023-04-22T05:29:23.784Z,47.9775
2023-04-22T05:30:25.456Z,48.1941
2023-04-22T05:31:27.074Z,48.2537
2023-04-22T05:32:28.761Z,48.3530
2023-04-22T05:33:30.361Z,48.3183
2023-04-22T05:34:31.996Z,48.4027
2023-04-22T05:35:33.728Z,48.3400
2023-04-22T05:36:35.220Z,48.4554
2023-04-22T05:37:36.965Z,48.4759
2023-04-22T05:38:38.563Z,48.4777
2023-04-22T05:39:40.675Z,48.4358
2023-04-22T05:40:41.970Z,48.5230
2023-04-22T05:41:46.150Z,48.5846
2023-04-22T05:42:45.209Z,48.5465
2023-04-22T05:43:46.873Z,48.5708
2023-04-22T05:44:48.448Z,48.6008
2023-04-22T05:45:50.292Z,48.6797
2023-04-22T05:46:51.768Z,48.8030
2023-04-22T05:47:53.425Z,48.8609
2023-04-22T05:48:55.121Z,48.8231
2023-04-22T05:49:56.752Z,48.8682
2023-04-22T05:50:58.328Z,48.9480
2023-04-22T05:52:00.088Z,48.9735
2023-04-22T05:53:01.604Z,49.0264
2023-04-22T05:54:03.339Z,49.1140
2023-04-22T05:55:04.956Z,49.1619
2023-04-22T05:56:06.629Z,49.2161
2023-04-22T05:57:08.279Z,49.2263
2023-04-22T05:58:09.895Z,49.4092
2023-04-22T05:59:11.563Z,49.3818
2023-04-22T06:53:28.112Z,49.4694
2023-04-22T06:54:31.184Z,52.9829
2023-04-22T06:55:32.916Z,53.0044
2023-04-22T06:56:34.455Z,53.1039
2023-04-22T06:57:36.095Z,53.2872
2023-04-22T06:58:37.848Z,53.4761
2023-04-22T06:59:39.652Z,53.6002
2023-04-22T07:00:41.089Z,53.6880
2023-04-22T07:01:42.763Z,53.7011
2023-04-22T07:02:44.423Z,53.8450
2023-04-22T07:03:46.227Z,53.8237
2023-04-22T07:04:47.596Z,53.9102
2023-04-22T07:05:49.314Z,53.9685
2023-04-22T07:06:50.921Z,54.0459
2023-04-22T07:07:53.550Z,54.1674
2023-04-22T07:08:54.284Z,54.2282
2023-04-22T07:09:56.932Z,54.3799
2023-04-22T07:10:57.481Z,54.4043
2023-04-22T07:11:59.581Z,54.4366
2023-04-22T07:13:01.114Z,54.5052
2023-04-22T07:14:02.808Z,54.4571
2023-04-22T07:15:04.164Z,54.5167
2023-04-22T07:16:05.824Z,54.7476
2023-04-22T07:17:07.897Z,54.7990
2023-04-22T07:18:09.011Z,54.8859
2023-04-22T07:19:10.810Z,55.0158
2023-04-22T07:20:12.354Z,55.0078
2023-04-22T07:21:14.056Z,55.1563
2023-04-22T07:22:15.654Z,55.1821
2023-04-22T07:23:17.361Z,55.3562
2023-04-22T07:24:18.978Z,55.3368
2023-04-22T07:25:20.691Z,55.3770
2023-04-22T07:26:22.255Z,55.5992
2023-04-22T07:27:23.940Z,55.6250
2023-04-22T07:28:25.548Z,55.6129
2023-04-22T07:29:27.478Z,55.5826
2023-04-22T07:30:29.123Z,55.7008
2023-04-22T07:31:30.616Z,55.8879
2023-04-22T07:32:32.230Z,55.8984
2023-04-22T07:33:33.814Z,56.1030
2023-04-22T07:34:35.441Z,56.1979
2023-04-22T07:35:37.152Z,56.2080
2023-04-22T07:36:38.874Z,56.3185
2023-04-22T07:37:40.504Z,56.4141
2023-04-22T07:38:42.028Z,56.3410
2023-04-22T07:39:43.706Z,56.3814
2023-04-22T07:40:45.382Z,56.4748
2023-04-22T07:41:47.098Z,56.5843
2023-04-22T07:42:48.593Z,56.6612
2023-04-22T07:43:50.407Z,56.6914
2023-04-22T07:44:52.855Z,56.6671
2023-04-22T07:45:53.712Z,56.7124
2023-04-22T07:46:55.220Z,56.7741
2023-04-22T07:47:56.992Z,56.7748
2023-04-22T07:48:58.461Z,56.7768
2023-04-22T07:50:00.235Z,56.8699
2023-04-22T07:51:03.292Z,56.8816
2023-04-22T07:52:03.798Z,57.0145
2023-04-22T07:53:05.125Z,57.0356
2023-04-22T07:54:06.703Z,56.9920
2023-04-22T07:55:08.420Z,56.6657
2023-04-22T07:56:11.032Z,55.1730
2023-04-22T07:57:11.805Z,45.4011
2023-04-22T07:58:13.336Z,48.2594
2023-04-22T07:59:15.016Z,49.9996
2023-04-22T08:00:16.732Z,49.7904
2023-04-22T08:01:20.152Z,50.0556
2023-04-22T08:02:21.036Z,50.0740
2023-04-22T08:03:21.832Z,50.2260
2023-04-22T08:04:23.693Z,50.4780
2023-04-22T08:05:25.037Z,50.6299
2023-04-22T08:06:27.538Z,50.7990
2023-04-22T08:07:33.001Z,50.9132
2023-04-22T08:08:29.793Z,51.1646
2023-04-22T08:09:31.587Z,51.2668
2023-04-22T08:10:33.190Z,51.2319
2023-04-22T08:11:34.828Z,44.1470
2023-04-22T08:12:36.484Z,40.7463
2023-04-22T08:13:38.150Z,42.6655
2023-04-22T08:14:39.735Z,45.2720
2023-04-22T08:15:41.394Z,45.4424
2023-04-22T08:16:43.143Z,45.5490
2023-04-22T08:17:44.798Z,45.7449
2023-04-22T08:18:46.338Z,45.9224
2023-04-22T08:19:47.956Z,46.2365
2023-04-22T08:20:49.671Z,46.5542
2023-04-22T08:21:51.315Z,46.7325
2023-04-22T08:22:52.983Z,46.9353
2023-04-22T08:23:54.494Z,45.4249
2023-04-22T08:24:56.308Z,42.8161
2023-04-22T08:25:57.786Z,40.3815
2023-04-22T08:26:59.564Z,41.8286
2023-04-22T08:28:01.200Z,43.2492
2023-04-22T08:29:02.844Z,43.6434
2023-04-22T08:30:05.328Z,44.0242
2023-04-22T08:31:07.018Z,44.2320
2023-04-22T08:32:07.780Z,42.4029
2023-04-22T08:33:09.525Z,39.2961
2023-04-22T08:34:11.020Z,39.4860
2023-04-22T08:35:12.736Z,41.0908
2023-04-22T08:36:14.451Z,41.9914
2023-04-22T08:37:16.086Z,42.4580
2023-04-22T08:38:17.732Z,42.7814
2023-04-22T08:39:19.309Z,42.9978
2023-04-22T08:40:20.988Z,43.3692
2023-04-22T08:41:22.628Z,43.7101
2023-04-22T08:42:24.353Z,43.3834
2023-04-22T08:43:25.949Z,39.7814
2023-04-22T08:44:27.566Z,40.9752
2023-04-22T08:45:29.169Z,41.2504
2023-04-22T08:46:30.913Z,41.0049
2023-04-22T08:47:32.582Z,40.0296
2023-04-22T08:48:34.232Z,40.3202
2023-04-22T08:49:35.783Z,40.6459
2023-04-22T08:50:37.460Z,40.9890
2023-04-22T08:51:39.090Z,41.3489
2023-04-22T08:52:40.760Z,41.7081
2023-04-22T08:53:43.408Z,41.9877
2023-04-22T08:54:44.103Z,42.0344
2023-04-22T08:55:45.719Z,40.7376
2023-04-22T08:56:47.311Z,37.5915
2023-04-22T08:57:49.026Z,37.9534
2023-04-22T08:58:50.706Z,37.6762
2023-04-22T08:59:52.292Z,36.9304
2023-04-22T09:00:53.918Z,38.3447
2023-04-22T09:01:55.645Z,38.8609
2023-04-22T09:02:58.242Z,39.3034
2023-04-22T09:03:59.126Z,39.6706
2023-04-22T09:05:00.482Z,39.1356
2023-04-22T09:06:02.222Z,36.7685
2023-04-22T09:07:03.973Z,35.6047
2023-04-22T09:08:05.478Z,35.9085
2023-04-22T09:09:07.145Z,37.4343
2023-04-22T09:10:08.806Z,37.9791
2023-04-22T09:11:10.430Z,38.2680
2023-04-22T09:12:12.111Z,38.4398
2023-04-22T09:13:13.684Z,38.4078
2023-04-22T09:14:16.393Z,37.0477
2023-04-22T09:15:17.024Z,35.4790
2023-04-22T09:16:18.646Z,35.9761
2023-04-22T09:17:20.223Z,35.6832
2023-04-22T09:18:21.942Z,35.4657
2023-04-22T09:19:23.504Z,36.5296
2023-04-22T09:20:25.211Z,35.3871
2023-04-22T09:21:26.877Z,34.2310
2023-04-22T09:22:28.457Z,35.6101
2023-04-22T09:23:30.146Z,36.7680
2023-04-22T09:24:31.734Z,37.0686
2023-04-22T09:25:33.479Z,37.4409
2023-04-22T09:26:35.072Z,37.6372
2023-04-22T09:27:36.730Z,37.9977
2023-04-22T09:28:38.380Z,38.1476
2023-04-22T09:29:40.249Z,38.1395
2023-04-22T09:30:41.694Z,37.7723
2023-04-22T09:31:43.361Z,37.6581
2023-04-22T09:32:45.023Z,36.0409
2023-04-22T09:33:48.309Z,34.9934
2023-04-22T09:34:48.300Z,35.0352
2023-04-22T09:35:50.005Z,35.8206
2023-04-22T09:36:51.611Z,36.3747
2023-04-22T09:37:53.224Z,36.1180
2023-04-22T09:38:54.865Z,36.2273
2023-04-22T09:39:56.550Z,35.4231
2023-04-22T09:40:58.225Z,34.6367
2023-04-22T09:41:59.874Z,33.8250
2023-04-22T09:43:01.502Z,35.2174
2023-04-22T09:44:03.167Z,35.5566
2023-04-22T09:45:04.806Z,35.9687
2023-04-22T09:46:06.563Z,36.1748
2023-04-22T09:47:08.125Z,35.7797
2023-04-22T09:48:09.718Z,34.3155
2023-04-22T09:49:11.429Z,33.5784
2023-04-22T09:50:13.081Z,33.4790
2023-04-22T09:51:14.688Z,34.0793
2023-04-22T09:52:16.395Z,34.6193
2023-04-22T09:53:17.948Z,35.1764
2023-04-22T09:54:19.638Z,35.4707
2023-04-22T09:55:21.291Z,33.7616
2023-04-22T09:56:23.048Z,33.5900
2023-04-22T09:57:24.936Z,34.1168
2023-04-22T09:58:26.214Z,32.5612
2023-04-22T09:59:27.848Z,32.8413
2023-04-22T10:00:29.581Z,33.6287
2023-04-22T10:01:31.242Z,33.2189
2023-04-22T10:02:32.957Z,33.4852
2023-04-22T10:03:34.464Z,33.6264
2023-04-22T10:04:36.164Z,33.5200
2023-04-22T10:05:37.809Z,33.0893
2023-04-22T10:06:39.526Z,33.0617
2023-04-22T10:07:41.128Z,33.7564
2023-04-22T10:08:42.743Z,33.8869
2023-04-22T10:09:44.418Z,32.8393
2023-04-22T10:10:46.015Z,32.2968
2023-04-22T10:11:47.749Z,33.2647
2023-04-22T10:12:49.401Z,30.8488
2023-04-22T10:13:51.024Z,31.4221
2023-04-22T10:14:52.682Z,31.8183
2023-04-22T10:15:54.469Z,32.9058
2023-04-22T10:16:56.098Z,33.5078
2023-04-22T10:17:59.441Z,31.9996
2023-04-22T10:18:59.227Z,31.2747
2023-04-22T10:20:00.868Z,31.6342
2023-04-22T10:21:02.487Z,31.7280
2023-04-22T10:22:04.192Z,32.4632
2023-04-22T10:23:05.848Z,32.7223
2023-04-22T10:24:07.484Z,32.7835
2023-04-22T10:25:09.065Z,31.9449
2023-04-22T10:26:10.763Z,32.1006
2023-04-22T10:27:12.406Z,31.8449
2023-04-22T10:28:14.111Z,31.5849
2023-04-22T10:29:15.749Z,31.6640
2023-04-22T10:30:17.433Z,30.4628
2023-04-22T10:31:19.157Z,31.2972
2023-04-22T10:32:20.714Z,31.8557
2023-04-22T10:33:22.414Z,31.6931
2023-04-22T10:34:23.997Z,32.7720
2023-04-22T10:35:25.651Z,33.1242
2023-04-22T10:36:27.263Z,33.7399
2023-04-22T10:37:28.980Z,33.8332
2023-04-22T10:38:30.890Z,34.0563
2023-04-22T10:39:32.253Z,33.4700
2023-04-22T10:40:33.877Z,32.1932
2023-04-22T10:41:35.545Z,31.9943
2023-04-22T10:42:37.200Z,31.4454
2023-04-22T10:43:38.876Z,31.7681
2023-04-22T10:44:40.494Z,31.6616
2023-04-22T10:46:43.802Z,30.6422
2023-04-22T10:47:45.456Z,31.6364
2023-04-22T10:48:47.142Z,32.1830
2023-04-22T10:49:48.724Z,31.8464
2023-04-22T10:50:50.435Z,31.7490
2023-04-22T10:51:52.047Z,31.7119
2023-04-22T10:52:53.770Z,31.2778
2023-04-22T10:53:55.414Z,31.6221
2023-04-22T10:54:57.000Z,31.9034
2023-04-22T10:55:58.667Z,31.8784
2023-04-22T10:57:00.297Z,31.9739
2023-04-22T10:58:02.382Z,31.0454
2023-04-22T10:59:03.628Z,31.7459
2023-04-22T11:00:05.227Z,32.0976
2023-04-22T11:01:06.826Z,31.0616
2023-04-22T11:02:08.621Z,32.1862
2023-04-22T11:03:10.337Z,32.2262
2023-04-22T11:04:11.893Z,32.2274
2023-04-22T11:05:13.462Z,31.0597
2023-04-22T11:06:15.123Z,31.5099
2023-04-22T11:07:16.755Z,31.5712
2023-04-22T11:08:18.428Z,31.6663
2023-04-22T11:09:20.149Z,31.7601
2023-04-22T11:10:21.703Z,31.5668
2023-04-22T11:11:23.889Z,30.3977
2023-04-22T11:12:25.027Z,30.9097
2023-04-22T11:13:26.751Z,30.8992
2023-04-22T11:14:28.345Z,30.8399
2023-04-22T11:15:30.036Z,31.1414
2023-04-22T11:16:31.696Z,32.2678
2023-04-22T11:17:33.278Z,32.1161
2023-04-22T11:18:35.398Z,32.0706
2023-04-22T11:19:36.702Z,31.9545
2023-04-22T11:20:38.229Z,31.4826
2023-04-22T11:21:39.859Z,30.7301
2023-04-22T11:22:41.564Z,30.7796
2023-04-22T11:23:43.929Z,30.3517
2023-04-22T11:24:44.908Z,30.3716
2023-04-22T11:25:46.498Z,30.8393
2023-04-22T11:26:48.090Z,30.3834
2023-04-22T11:27:49.895Z,30.6438
2023-04-22T11:28:51.478Z,32.1441
2023-04-22T11:29:53.178Z,31.9358
2023-04-22T11:30:54.839Z,32.4423
2023-04-22T11:31:56.460Z,33.5575
2023-04-22T11:32:58.117Z,32.4595
2023-04-22T11:33:59.754Z,31.5424
2023-04-22T11:35:01.389Z,32.2407
2023-04-22T11:36:03.045Z,32.8898
2023-04-22T11:37:04.641Z,32.2666
2023-04-22T11:38:06.264Z,31.5922
2023-04-22T11:39:08.028Z,31.7655
2023-04-22T11:40:28.209Z,32.0961
2023-04-22T11:41:11.265Z,32.0659
2023-04-22T11:42:12.908Z,31.7656
2023-04-22T11:43:14.509Z,31.7132
2023-04-22T11:44:16.241Z,31.6831
2023-04-22T11:45:17.979Z,31.5704
2023-04-22T11:46:21.164Z,32.2118
2023-04-22T11:47:21.188Z,31.7018
2023-04-22T11:48:22.829Z,31.5438
2023-04-22T11:49:24.575Z,32.2403
2023-04-22T11:50:26.198Z,36.2844
2023-04-22T11:51:27.831Z,45.8846
2023-04-22T11:52:29.384Z,48.4123
2023-04-22T11:53:31.114Z,46.7058
2023-04-22T11:54:32.745Z,47.9652
2023-04-22T11:55:34.460Z,48.9788
2023-04-22T11:56:36.047Z,50.2538
2023-04-22T11:57:37.721Z,51.0467
2023-04-22T11:58:39.349Z,52.0054
2023-04-22T11:59:41.324Z,53.5277
2023-04-22T12:00:42.784Z,54.0532
2023-04-22T12:01:44.299Z,42.9061
2023-04-22T12:02:46.133Z,44.0994
2023-04-22T12:03:47.765Z,47.1510
2023-04-22T12:04:49.308Z,47.7209
2023-04-22T12:05:50.942Z,48.3622
2023-04-22T12:06:52.542Z,45.3975
2023-04-22T12:07:54.223Z,44.9930
2023-04-22T12:08:55.840Z,41.5743
2023-04-22T12:09:57.496Z,43.0783
2023-04-22T12:10:59.156Z,43.5725
2023-04-22T12:12:00.868Z,44.3238
2023-04-22T12:13:02.438Z,40.7939
2023-04-22T12:14:04.148Z,41.2822
2023-04-22T12:15:05.758Z,39.5547
2023-04-22T12:16:07.383Z,38.7016
2023-04-22T12:17:09.305Z,38.0652
2023-04-22T12:18:10.663Z,39.1458
2023-04-22T12:19:12.352Z,37.3851
2023-04-22T12:20:14.010Z,45.7524
2023-04-22T12:21:15.624Z,44.3721
2023-04-22T12:22:17.480Z,43.7520
2023-04-22T12:23:19.013Z,41.7446
2023-04-22T12:24:20.601Z,42.6483
2023-04-22T12:25:22.267Z,41.4557
2023-04-22T12:26:26.190Z,39.9853
2023-04-22T12:27:25.565Z,40.8334
2023-04-22T12:28:27.464Z,38.0054
2023-04-22T12:29:29.011Z,38.8634
2023-04-22T12:30:30.459Z,42.1319
2023-04-22T12:31:32.292Z,38.2506
2023-04-22T12:32:34.407Z,41.9542
2023-04-22T12:33:35.497Z,43.1289
2023-04-22T12:34:37.124Z,42.5538
2023-04-22T12:35:38.691Z,42.1253
2023-04-22T12:36:40.461Z,41.8928
2023-04-22T12:37:42.072Z,45.3235
2023-04-22T12:38:43.776Z,40.3784
2023-04-22T12:39:45.511Z,41.0456
2023-04-22T12:40:47.079Z,44.5691
2023-04-22T12:41:48.601Z,47.7950
2023-04-22T12:42:50.318Z,44.8706
2023-04-22T12:43:52.518Z,46.7771
2023-04-22T12:44:53.601Z,44.3979
2023-04-22T12:45:55.546Z,44.4975
2023-04-22T12:46:56.893Z,45.8218
2023-04-22T12:47:58.569Z,46.5681
2023-04-22T12:49:00.262Z,47.6315
2023-04-22T12:50:01.907Z,49.7103
2023-04-22T12:51:03.579Z,49.2893
2023-04-22T12:52:05.231Z,43.7467
2023-04-22T12:53:07.475Z,42.7883
2023-04-22T12:54:08.421Z,45.1309
2023-04-22T12:55:10.167Z,43.3481
2023-04-22T12:56:11.827Z,45.3991
2023-04-22T12:57:13.409Z,51.7781
2023-04-22T12:58:15.124Z,47.1311
2023-04-22T12:59:16.742Z,46.5709
2023-04-22T13:00:18.374Z,46.8101
2023-04-22T13:01:20.113Z,47.7560
2023-04-22T13:02:21.761Z,48.6105
2023-04-22T13:03:23.436Z,49.9060
2023-04-22T13:04:25.034Z,50.8279
2023-04-22T13:05:26.738Z,50.3126
2023-04-22T13:06:28.282Z,45.2722
2023-04-22T13:07:29.921Z,46.4694
2023-04-22T13:08:31.529Z,43.8518
2023-04-22T13:09:33.283Z,41.9129
2023-04-22T13:10:35.598Z,43.7991
2023-04-22T13:11:36.538Z,49.9133
2023-04-22T13:12:38.653Z,48.4500
2023-04-22T13:13:39.853Z,46.0874
2023-04-22T13:14:41.601Z,45.0899
2023-04-22T13:15:43.103Z,46.6089
2023-04-22T13:16:44.878Z,47.8726
2023-04-22T13:17:48.051Z,50.4959
2023-04-22T13:18:48.985Z,47.4644
2023-04-22T13:19:49.704Z,41.5282